sim
Sign-in with your pilot id or email,
or register
Callsign
Passwort

Schedule Details

Flight Number: DLH2035
Departure: Berlin Tegel Airport (EDDT) at 10:00
Arrival: Munich Airport (EDDM) at 11:10
Route: Lufthansa Passenger Schedule. Enter filed route here before submitting Pirep.

Weather Information
Getting current METAR information for EDDT 010420Z VRB02KT 2000 R08L/1000N BCFG BR SCT002 07/07 Q1010 TEMPO 0800 FG BKN002
Getting current METAR information for EDDM 010420Z 07001KT 0700 R08L/0450N R08R/0700N FG FEW001 03/03 Q1009 BECMG 0500 BKN001

Schedule Frequency

Route Map